Time;durP1;ratioP1;P1;durP2;ratioP2;P2;SDS_P1;SDS_P2;PMS_P1;PMS_P2;Temp;Humidity;BMP_temperature;BMP_pressure;BME280_temperature;BME280_humidity;BME280_pressure;Samples;Min_cycle;Max_cycle;Signal;HPM_P1;HPM_P2
2022/07/21 00:00:28;;;;;;;8.43;7.40;;;19.40;99.90;;;;;;5109008;28;20774;-84
2022/07/21 00:02:55;;;;;;;10.40;7.03;;;19.30;99.90;;;;;;5109058;28;20627;-84
2022/07/21 00:05:23;;;;;;;7.77;7.00;;;19.40;99.90;;;;;;5108880;28;20666;-84
2022/07/21 00:07:51;;;;;;;8.40;7.10;;;19.40;99.90;;;;;;5108539;27;20711;-84
2022/07/21 00:10:19;;;;;;;7.90;6.77;;;19.30;99.90;;;;;;5108616;28;20626;-84
2022/07/21 00:12:46;;;;;;;10.80;8.00;;;19.30;99.90;;;;;;5108486;28;20664;-84
2022/07/21 00:15:17;;;;;;;10.07;9.13;;;19.30;99.90;;;;;;5108774;28;20963;-84
2022/07/21 00:17:44;;;;;;;8.23;7.40;;;19.30;99.90;;;;;;5108453;28;20747;-84
2022/07/21 00:20:15;;;;;;;7.90;7.10;;;19.20;99.90;;;;;;5107723;28;20603;-84
2022/07/21 00:22:43;;;;;;;8.60;7.70;;;19.10;99.90;;;;;;5108151;28;20615;-84
2022/07/21 00:25:14;;;;;;;8.23;7.27;;;19.20;99.90;;;;;;5108108;28;20611;-84
2022/07/21 00:27:41;;;;;;;9.00;7.63;;;19.20;99.90;;;;;;5108969;28;21192;-84
2022/07/21 00:30:11;;;;;;;7.27;6.50;;;19.10;99.90;;;;;;5108399;28;20604;-84
2022/07/21 00:32:40;;;;;;;8.03;6.97;;;19.10;99.90;;;;;;5107313;28;20610;-84
2022/07/21 00:35:10;;;;;;;7.20;6.40;;;19.20;99.90;;;;;;5108420;28;20620;-84
2022/07/21 00:37:38;;;;;;;7.77;6.70;;;19.20;99.90;;;;;;5108566;28;21187;-84
2022/07/21 00:40:06;;;;;;;6.77;5.53;;;19.20;99.90;;;;;;5108656;28;20643;-84
2022/07/21 00:42:36;;;;;;;9.60;7.60;;;19.20;99.90;;;;;;5107828;28;20714;-83
2022/07/21 00:45:05;;;;;;;7.23;6.37;;;19.10;99.90;;;;;;5107933;28;21195;-84
2022/07/21 00:47:32;;;;;;;12.90;8.07;;;19.10;99.90;;;;;;5108316;28;21032;-83
2022/07/21 00:50:06;;;;;;;8.80;7.90;;;19.20;99.90;;;;;;5106434;28;20659;-84
2022/07/21 00:52:34;;;;;;;6.50;5.50;;;19.20;99.90;;;;;;5107798;28;20611;-84
2022/07/21 00:55:02;;;;;;;12.77;6.80;;;19.20;99.90;;;;;;5108128;28;21040;-84
2022/07/21 00:57:30;;;;;;;6.93;6.20;;;19.30;99.90;;;;;;5107865;28;20655;-84
2022/07/21 00:59:57;;;;;;;9.03;7.63;;;19.30;99.90;;;;;;5108174;28;20640;-84
2022/07/21 01:02:26;;;;;;;7.73;6.20;;;19.30;99.90;;;;;;5107313;28;20706;-84
2022/07/21 01:04:53;;;;;;;7.80;6.93;;;19.20;99.90;;;;;;5107975;28;20643;-84
2022/07/21 01:07:21;;;;;;;8.27;7.30;;;19.20;99.90;;;;;;5107234;28;21093;-84
2022/07/21 01:09:49;;;;;;;8.80;7.03;;;19.20;99.90;;;;;;5107977;28;20608;-84
2022/07/21 01:12:16;;;;;;;8.47;6.63;;;19.20;99.90;;;;;;5107182;28;20615;-84
2022/07/21 01:14:43;;;;;;;7.60;6.90;;;19.20;99.90;;;;;;5108057;28;21080;-84
2022/07/21 01:17:10;;;;;;;7.80;6.57;;;19.20;99.90;;;;;;5108329;28;20700;-84
2022/07/21 01:19:39;;;;;;;8.00;5.83;;;19.30;99.90;;;;;;5107977;28;20695;-84
2022/07/21 01:22:08;;;;;;;8.03;6.43;;;19.30;99.90;;;;;;5108029;28;20639;-84
2022/07/21 01:24:36;;;;;;;7.17;5.93;;;19.30;99.90;;;;;;5107650;28;20618;-84
2022/07/21 01:27:04;;;;;;;7.73;6.07;;;19.20;99.90;;;;;;5108136;28;20681;-84
2022/07/21 01:29:31;;;;;;;7.47;5.77;;;19.20;99.90;;;;;;5108219;28;20615;-84
2022/07/21 01:31:59;;;;;;;9.00;7.30;;;19.20;99.90;;;;;;5111842;28;20693;-84
2022/07/21 01:34:27;;;;;;;7.37;6.17;;;19.20;99.90;;;;;;5111171;28;20705;-84
2022/07/21 01:36:56;;;;;;;7.40;6.10;;;19.20;99.90;;;;;;5111501;28;20666;-84
2022/07/21 01:42:11;;;;;;;6.80;4.77;;;19.20;99.90;;;;;;5111330;28;20636;-84
2022/07/21 01:44:39;;;;;;;4.57;4.17;;;19.10;99.90;;;;;;5111699;28;20614;-84
2022/07/21 01:47:07;;;;;;;6.17;4.10;;;19.10;99.90;;;;;;5111604;28;20619;-84
2022/07/21 01:49:35;;;;;;;7.00;5.07;;;19.10;99.90;;;;;;5110878;28;20692;-84
2022/07/21 01:52:02;;;;;;;6.07;4.47;;;19.10;99.90;;;;;;5110938;28;20646;-84
2022/07/21 01:54:33;;;;;;;5.83;4.93;;;19.10;99.90;;;;;;5111263;27;20607;-84
2022/07/21 01:57:00;;;;;;;5.57;4.90;;;19.10;99.90;;;;;;5111531;28;21038;-84
2022/07/21 01:59:27;;;;;;;4.63;4.10;;;19.20;99.90;;;;;;5111554;28;20615;-84
2022/07/21 02:01:54;;;;;;;5.73;4.93;;;19.10;99.90;;;;;;5111603;28;20600;-84
2022/07/21 02:04:21;;;;;;;6.07;4.17;;;19.10;99.90;;;;;;5111004;28;20619;-85
2022/07/21 02:06:48;;;;;;;5.10;4.50;;;19.10;99.90;;;;;;5112825;28;20607;-85
2022/07/21 02:09:15;;;;;;;5.80;5.07;;;19.20;99.90;;;;;;5112118;28;20676;-85
2022/07/21 02:11:43;;;;;;;6.50;4.40;;;19.30;99.90;;;;;;5111659;27;21256;-85
2022/07/21 02:14:10;;;;;;;5.00;3.93;;;19.10;99.90;;;;;;5110694;28;20718;-87
2022/07/21 02:16:37;;;;;;;4.83;4.40;;;19.00;99.90;;;;;;5110733;28;20615;-86
2022/07/21 02:19:04;;;;;;;5.20;4.50;;;19.10;99.90;;;;;;5110772;28;21040;-86
2022/07/21 02:21:31;;;;;;;5.03;4.53;;;19.10;99.90;;;;;;5110732;28;20603;-85
2022/07/21 02:23:58;;;;;;;9.50;5.67;;;19.10;99.90;;;;;;5110363;28;20650;-85
2022/07/21 02:26:25;;;;;;;8.40;4.30;;;19.00;99.90;;;;;;5111000;28;21279;-86
2022/07/21 02:28:53;;;;;;;4.53;4.10;;;19.00;99.90;;;;;;5111065;28;21138;-85
2022/07/21 02:31:20;;;;;;;5.30;4.50;;;19.00;99.90;;;;;;5110157;28;21246;-86
2022/07/21 02:33:47;;;;;;;6.50;5.23;;;18.90;99.90;;;;;;5110028;28;20618;-86
2022/07/21 02:36:14;;;;;;;4.70;4.20;;;19.00;99.90;;;;;;5110682;28;21184;-87
2022/07/21 02:38:41;;;;;;;7.97;4.07;;;19.00;99.90;;;;;;5110434;28;20706;-87
2022/07/21 02:41:08;;;;;;;5.57;3.93;;;19.10;99.90;;;;;;5109590;28;20648;-87
2022/07/21 02:43:35;;;;;;;5.20;4.70;;;19.20;99.90;;;;;;5110107;28;20638;-86
2022/07/21 02:46:03;;;;;;;5.10;3.60;;;19.20;99.90;;;;;;5110329;28;20674;-87
2022/07/21 02:48:30;;;;;;;5.40;4.30;;;19.10;99.90;;;;;;5110476;28;20659;-87
2022/07/21 02:50:56;;;;;;;5.03;4.17;;;19.20;99.90;;;;;;5109266;28;20615;-87
2022/07/21 02:53:23;;;;;;;5.13;3.67;;;19.20;99.90;;;;;;5109714;28;20723;-87
2022/07/21 02:55:52;;;;;;;4.67;3.87;;;19.10;99.90;;;;;;5110310;28;20611;-86
2022/07/21 02:58:21;;;;;;;5.57;4.67;;;19.10;99.90;;;;;;5109911;28;20654;-86
2022/07/21 03:00:52;;;;;;;4.30;3.93;;;19.20;99.90;;;;;;5110079;28;20612;-86
2022/07/21 03:03:21;;;;;;;4.73;4.23;;;19.10;99.90;;;;;;5109776;28;20715;-86
2022/07/21 03:05:48;;;;;;;4.70;3.63;;;19.20;99.90;;;;;;5110243;27;20620;-86
2022/07/21 03:08:16;;;;;;;4.83;4.10;;;19.20;99.90;;;;;;5109957;28;20602;-86
2022/07/21 03:10:43;;;;;;;6.37;4.97;;;19.00;99.90;;;;;;5109887;28;20719;-86
2022/07/21 03:13:10;;;;;;;3.83;3.43;;;19.00;99.90;;;;;;5108872;28;20619;-86
2022/07/21 03:15:37;;;;;;;4.90;3.63;;;19.10;99.90;;;;;;5109918;28;20612;-86
2022/07/21 03:18:05;;;;;;;3.40;3.10;;;19.00;99.90;;;;;;5109824;28;20686;-86
2022/07/21 03:20:34;;;;;;;4.50;3.57;;;19.00;99.90;;;;;;5109768;28;20615;-86
2022/07/21 03:23:02;;;;;;;5.13;4.43;;;18.90;99.90;;;;;;5109930;28;20600;-85
2022/07/21 03:25:29;;;;;;;6.57;4.00;;;19.00;99.90;;;;;;5109054;28;20600;-85
2022/07/21 03:27:56;;;;;;;5.93;4.77;;;19.00;99.90;;;;;;5109800;28;20644;-85
2022/07/21 03:30:24;;;;;;;3.70;3.07;;;19.00;99.90;;;;;;5109609;28;20715;-85
2022/07/21 03:32:51;;;;;;;6.30;4.40;;;18.90;99.90;;;;;;5108713;28;20770;-86
2022/07/21 03:35:19;;;;;;;5.37;3.63;;;18.90;99.90;;;;;;5109040;28;20711;-85
2022/07/21 03:37:49;;;;;;;3.90;3.60;;;18.90;99.90;;;;;;5109285;28;20664;-86
2022/07/21 03:40:17;;;;;;;5.87;4.70;;;19.00;99.90;;;;;;5108891;28;20718;-85
2022/07/21 03:42:44;;;;;;;4.27;3.70;;;19.00;99.90;;;;;;5108788;28;20711;-87
2022/07/21 03:45:12;;;;;;;5.47;4.17;;;18.90;99.90;;;;;;5108991;28;21223;-85
2022/07/21 03:47:39;;;;;;;4.77;3.80;;;18.80;99.90;;;;;;5109449;28;20738;-85
2022/07/21 03:50:07;;;;;;;4.60;3.70;;;18.80;99.90;;;;;;5107583;28;20632;-87
2022/07/21 03:52:34;;;;;;;3.80;3.50;;;18.80;99.90;;;;;;5107649;28;20615;-85
2022/07/21 03:55:09;;;;;;;4.37;3.70;;;18.80;99.90;;;;;;5108970;27;20649;-86
2022/07/21 03:57:37;;;;;;;4.67;3.03;;;18.80;99.90;;;;;;5109153;27;20715;-85
2022/07/21 04:00:07;;;;;;;4.80;3.93;;;18.70;99.90;;;;;;5108840;28;20620;-86
2022/07/21 04:02:34;;;;;;;4.13;3.73;;;18.70;99.90;;;;;;5108464;28;20622;-85
2022/07/21 04:05:01;;;;;;;4.50;4.10;;;18.60;99.90;;;;;;5108479;28;20663;-87
2022/07/21 04:07:28;;;;;;;6.63;3.80;;;18.60;99.90;;;;;;5109047;28;20716;-85
2022/07/21 04:09:55;;;;;;;4.40;4.00;;;18.60;99.90;;;;;;5108858;28;20656;-85
2022/07/21 04:12:27;;;;;;;5.80;4.40;;;18.60;99.90;;;;;;5108662;28;20603;-85
2022/07/21 04:14:54;;;;;;;4.13;3.47;;;18.60;99.90;;;;;;5108539;28;20659;-85
2022/07/21 04:17:21;;;;;;;6.13;4.27;;;18.60;99.90;;;;;;5108924;28;20624;-85
2022/07/21 04:19:48;;;;;;;3.47;3.17;;;18.60;99.90;;;;;;5107785;28;21214;-86
2022/07/21 04:22:15;;;;;;;5.50;3.50;;;18.70;99.90;;;;;;5107999;28;21107;-85
2022/07/21 04:24:42;;;;;;;3.93;3.50;;;18.70;99.90;;;;;;5108109;28;20618;-87
2022/07/21 04:27:09;;;;;;;5.43;4.20;;;18.70;99.90;;;;;;5109061;28;20611;-86
2022/07/21 04:29:37;;;;;;;4.90;3.47;;;18.60;99.90;;;;;;5108359;28;20718;-85
2022/07/21 04:32:05;;;;;;;4.03;3.27;;;18.60;99.90;;;;;;5108198;28;20639;-85
2022/07/21 04:34:32;;;;;;;4.93;4.13;;;18.50;99.90;;;;;;5107952;28;20616;-85
2022/07/21 04:36:58;;;;;;;4.77;4.20;;;18.50;99.90;;;;;;5108608;28;20646;-85
2022/07/21 04:39:25;;;;;;;5.50;3.77;;;18.50;99.90;;;;;;5107931;28;20706;-85
2022/07/21 04:41:52;;;;;;;4.07;3.67;;;18.50;99.90;;;;;;5108799;28;20636;-85
2022/07/21 04:44:19;;;;;;;3.30;3.00;;;18.50;99.90;;;;;;5107483;28;20627;-85
2022/07/21 04:46:47;;;;;;;5.80;4.33;;;18.50;99.90;;;;;;5107981;28;20665;-85
2022/07/21 04:49:14;;;;;;;6.03;4.33;;;18.50;99.90;;;;;;5107715;28;20691;-88
2022/07/21 04:51:41;;;;;;;4.27;3.87;;;18.60;99.90;;;;;;5107137;28;20680;-85
2022/07/21 04:54:08;;;;;;;3.70;3.40;;;18.50;99.90;;;;;;5107642;28;20715;-86
2022/07/21 04:56:35;;;;;;;4.70;3.93;;;18.70;99.90;;;;;;5107937;28;21244;-85
2022/07/21 04:59:04;;;;;;;3.90;3.53;;;18.80;99.90;;;;;;5107986;28;20649;-85
2022/07/21 05:01:31;;;;;;;5.93;4.87;;;18.80;99.90;;;;;;5089197;28;20715;-85
2022/07/21 05:03:59;;;;;;;4.27;3.87;;;18.70;99.90;;;;;;5107344;28;20665;-83
2022/07/21 05:06:26;;;;;;;6.67;5.00;;;18.70;99.90;;;;;;5112683;28;20625;-84
2022/07/21 05:08:53;;;;;;;5.27;3.40;;;18.70;99.90;;;;;;5113769;28;21097;-84
2022/07/21 05:11:20;;;;;;;5.40;4.47;;;18.90;99.90;;;;;;5113459;28;20700;-84
2022/07/21 05:13:47;;;;;;;3.90;3.60;;;19.00;99.90;;;;;;5111768;28;21250;-84
2022/07/21 05:16:13;;;;;;;5.77;3.97;;;19.00;99.90;;;;;;5113208;28;20618;-84
2022/07/21 05:18:40;;;;;;;5.73;4.40;;;19.00;99.90;;;;;;5113899;28;21027;-84
2022/07/21 05:21:09;;;;;;;5.97;3.70;;;19.10;99.90;;;;;;5113134;28;20940;-84
2022/07/21 05:23:35;;;;;;;6.23;4.00;;;19.10;99.90;;;;;;5112686;28;20710;-84
2022/07/21 05:26:03;;;;;;;4.77;4.00;;;19.10;99.90;;;;;;5113516;28;20622;-84
2022/07/21 05:28:30;;;;;;;6.30;4.63;;;19.20;99.90;;;;;;5112710;28;20642;-84
2022/07/21 05:30:57;;;;;;;5.77;4.53;;;19.30;99.90;;;;;;5114182;28;20622;-84
2022/07/21 05:33:24;;;;;;;5.90;4.80;;;19.20;99.90;;;;;;5112924;28;20623;-84
2022/07/21 05:35:51;;;;;;;4.27;3.87;;;19.30;99.90;;;;;;5112858;28;20624;-83
2022/07/21 05:38:19;;;;;;;5.80;5.17;;;19.20;99.90;;;;;;5113722;28;20723;-84
2022/07/21 05:40:46;;;;;;;6.67;4.77;;;19.30;99.90;;;;;;5112558;28;20715;-84
2022/07/21 05:43:13;;;;;;;4.70;4.17;;;19.20;99.90;;;;;;5111947;28;20648;-84
2022/07/21 05:45:40;;;;;;;4.83;3.90;;;19.40;99.90;;;;;;5113054;28;20616;-85
2022/07/21 05:48:07;;;;;;;5.17;4.67;;;19.40;99.90;;;;;;5113522;28;20738;-84
2022/07/21 05:50:34;;;;;;;4.40;4.00;;;19.60;99.90;;;;;;5111022;28;20603;-85
2022/07/21 05:53:01;;;;;;;4.67;4.17;;;19.70;99.90;;;;;;5111801;28;20989;-85
2022/07/21 05:55:29;;;;;;;4.23;3.83;;;19.80;99.90;;;;;;5112207;28;20718;-85
2022/07/21 05:57:56;;;;;;;4.80;4.40;;;19.90;99.90;;;;;;5113377;28;20673;-84
2022/07/21 06:00:23;;;;;;;4.73;4.27;;;19.90;99.90;;;;;;5112818;28;20600;-84
2022/07/21 06:02:51;;;;;;;4.77;4.30;;;19.80;99.90;;;;;;5111475;28;20623;-83
2022/07/21 06:05:18;;;;;;;5.43;4.93;;;19.60;99.90;;;;;;5112560;28;20602;-83
2022/07/21 06:07:44;;;;;;;4.80;4.40;;;19.70;99.90;;;;;;5112780;28;20786;-83
2022/07/21 06:10:12;;;;;;;5.80;4.80;;;19.70;99.90;;;;;;5111929;28;20619;-84
2022/07/21 06:12:40;;;;;;;5.33;4.60;;;19.70;99.90;;;;;;5112370;28;20619;-83
2022/07/21 06:15:08;;;;;;;6.43;4.80;;;19.80;99.90;;;;;;5112778;28;20680;-83
2022/07/21 06:17:40;;;;;;;6.13;5.10;;;19.80;99.90;;;;;;5113452;28;20637;-83
2022/07/21 06:20:08;;;;;;;4.97;4.43;;;19.90;99.90;;;;;;5113179;28;20999;-83
2022/07/21 06:22:35;;;;;;;5.13;4.60;;;19.90;99.90;;;;;;5109563;28;20627;-83
2022/07/21 06:25:02;;;;;;;4.13;3.80;;;19.90;99.90;;;;;;5111815;28;20648;-83
2022/07/21 06:27:29;;;;;;;5.17;4.67;;;19.90;99.90;;;;;;5112149;28;21028;-84
2022/07/21 06:29:58;;;;;;;4.50;3.73;;;19.90;99.90;;;;;;5112916;28;20655;-83
2022/07/21 06:32:25;;;;;;;5.60;4.43;;;19.80;99.90;;;;;;5101168;28;20625;-84
2022/07/21 06:34:52;;;;;;;8.20;5.07;;;19.90;99.90;;;;;;5111904;28;20670;-83
2022/07/21 06:37:19;;;;;;;7.07;4.77;;;20.00;99.90;;;;;;5110645;28;20639;-83
2022/07/21 06:39:46;;;;;;;7.30;4.57;;;20.10;99.90;;;;;;5110463;28;20615;-83
2022/07/21 06:42:13;;;;;;;6.17;5.30;;;20.10;99.90;;;;;;5110331;28;20743;-84
2022/07/21 06:44:40;;;;;;;6.00;5.00;;;20.00;99.90;;;;;;5110380;28;21254;-83
2022/07/21 06:47:08;;;;;;;5.73;5.13;;;19.90;99.90;;;;;;5110499;28;20616;-83
2022/07/21 06:49:35;;;;;;;5.33;4.80;;;20.00;99.90;;;;;;5108778;28;20671;-84
2022/07/21 06:52:02;;;;;;;4.40;3.43;;;20.00;99.90;;;;;;5110233;28;20655;-83
2022/07/21 06:54:28;;;;;;;4.60;3.87;;;20.00;99.90;;;;;;5110554;28;20668;-83
2022/07/21 06:56:55;;;;;;;4.90;4.20;;;20.10;99.90;;;;;;5110961;28;21260;-83
2022/07/21 06:59:22;;;;;;;5.50;4.80;;;20.20;99.90;;;;;;5109890;28;21168;-83
2022/07/21 07:01:49;;;;;;;4.77;3.87;;;20.20;99.90;;;;;;5109836;28;20612;-83
2022/07/21 07:04:17;;;;;;;4.67;4.27;;;20.20;99.90;;;;;;5108231;28;20615;-83
2022/07/21 07:06:44;;;;;;;4.10;3.63;;;20.20;99.90;;;;;;5109728;28;21027;-84
2022/07/21 07:09:11;;;;;;;7.27;4.40;;;20.20;99.90;;;;;;5109537;28;20667;-83
2022/07/21 07:11:39;;;;;;;4.23;3.83;;;20.20;99.90;;;;;;5109395;28;21026;-83
2022/07/21 07:14:06;;;;;;;4.97;4.47;;;20.30;99.90;;;;;;5109004;28;20619;-83
2022/07/21 07:16:33;;;;;;;5.40;4.90;;;20.30;99.90;;;;;;5109374;28;20654;-84
2022/07/21 07:18:59;;;;;;;9.50;4.27;;;20.40;99.90;;;;;;5109199;28;20659;-83
2022/07/21 07:21:28;;;;;;;5.90;4.07;;;20.40;99.90;;;;;;5109141;28;20616;-83
2022/07/21 07:23:55;;;;;;;4.80;4.30;;;20.50;99.90;;;;;;5108542;28;20603;-83
2022/07/21 07:26:21;;;;;;;4.30;3.90;;;20.50;99.90;;;;;;5109925;28;20632;-83
2022/07/21 07:28:48;;;;;;;5.07;4.57;;;20.50;99.90;;;;;;5108414;28;20708;-84
2022/07/21 07:31:15;;;;;;;4.77;4.37;;;20.60;99.90;;;;;;5106138;28;20651;-84
2022/07/21 07:33:42;;;;;;;4.27;3.87;;;20.60;99.90;;;;;;5108370;28;20634;-83
2022/07/21 07:36:12;;;;;;;4.83;4.20;;;20.60;99.90;;;;;;5109348;28;20718;-83
2022/07/21 07:38:40;;;;;;;5.63;4.70;;;20.70;99.90;;;;;;5109290;28;20676;-83
2022/07/21 07:41:07;;;;;;;6.07;4.60;;;20.80;99.90;;;;;;5105367;28;20647;-83
2022/07/21 07:43:34;;;;;;;5.17;4.30;;;21.00;99.90;;;;;;5108268;28;20626;-83
2022/07/21 07:46:01;;;;;;;4.57;4.10;;;21.10;99.90;;;;;;5108545;28;20615;-83
2022/07/21 07:48:31;;;;;;;6.60;5.37;;;21.10;99.90;;;;;;5109109;28;20643;-83
2022/07/21 07:50:57;;;;;;;4.40;4.00;;;21.30;99.90;;;;;;5107622;28;20658;-84
2022/07/21 07:53:24;;;;;;;5.57;5.03;;;21.50;99.90;;;;;;5108237;28;20676;-83
2022/07/21 07:55:52;;;;;;;5.33;4.83;;;21.60;99.90;;;;;;5109037;28;21175;-83
2022/07/21 07:58:19;;;;;;;6.77;4.63;;;21.70;99.90;;;;;;5108294;28;20718;-83
2022/07/21 08:00:46;;;;;;;4.80;4.30;;;21.60;99.90;;;;;;5108442;28;21227;-83
2022/07/21 08:03:13;;;;;;;4.43;4.03;;;21.80;99.90;;;;;;5108732;28;21220;-83
2022/07/21 08:05:40;;;;;;;6.00;5.17;;;21.90;99.90;;;;;;5108787;28;20611;-83
2022/07/21 08:08:07;;;;;;;4.47;4.07;;;21.90;99.90;;;;;;5108573;28;20615;-83
2022/07/21 08:10:34;;;;;;;5.07;4.57;;;21.90;99.90;;;;;;5108479;28;20671;-83
2022/07/21 08:13:03;;;;;;;5.00;4.50;;;22.00;99.90;;;;;;5107876;28;20703;-82
2022/07/21 08:15:30;;;;;;;4.23;3.93;;;22.10;99.90;;;;;;5108768;28;20883;-83
2022/07/21 08:17:57;;;;;;;6.20;4.00;;;22.20;99.90;;;;;;5108838;28;20706;-83
2022/07/21 08:20:24;;;;;;;4.40;4.00;;;22.20;99.90;;;;;;5108304;28;20677;-83
2022/07/21 08:22:50;;;;;;;4.50;4.10;;;21.70;99.90;;;;;;5107769;28;21263;-83
2022/07/21 08:25:17;;;;;;;4.90;4.40;;;21.80;99.90;;;;;;5108337;28;21085;-82
2022/07/21 08:27:44;;;;;;;4.93;4.47;;;22.10;99.90;;;;;;5108500;28;21040;-83
2022/07/21 08:30:13;;;;;;;4.20;3.73;;;22.40;99.90;;;;;;5107906;28;20651;-83
2022/07/21 08:32:40;;;;;;;4.87;4.47;;;22.60;99.90;;;;;;5107818;28;20624;-83
2022/07/21 08:35:08;;;;;;;5.07;3.87;;;22.70;99.90;;;;;;5108206;28;20700;-83
2022/07/21 08:37:36;;;;;;;4.47;4.13;;;23.00;99.90;;;;;;5108119;28;21249;-83
2022/07/21 08:40:04;;;;;;;4.23;3.87;;;23.10;99.90;;;;;;5107343;28;20620;-85
2022/07/21 08:42:31;;;;;;;4.70;3.87;;;23.30;98.60;;;;;;5107915;28;20638;-83
2022/07/21 08:44:58;;;;;;;2.87;2.63;;;23.30;98.00;;;;;;5108189;28;20700;-83
2022/07/21 08:47:27;;;;;;;4.03;3.60;;;23.20;98.80;;;;;;5107995;28;20665;-83
2022/07/21 08:49:55;;;;;;;3.50;3.20;;;23.30;97.60;;;;;;5106657;28;20666;-83
2022/07/21 08:52:22;;;;;;;3.30;3.00;;;23.00;98.00;;;;;;5107433;28;21166;-83
2022/07/21 08:54:49;;;;;;;6.23;3.77;;;22.90;98.10;;;;;;5106959;28;21177;-83
2022/07/21 08:57:16;;;;;;;4.60;4.20;;;23.10;96.60;;;;;;5107903;28;21170;-83
2022/07/21 08:59:43;;;;;;;4.13;3.60;;;23.40;98.80;;;;;;5107842;28;21030;-83
2022/07/21 09:02:28;;;;;;;5.90;3.63;;;23.60;96.80;;;;;;5107924;28;20712;-83
2022/07/21 09:04:55;;;;;;;4.00;3.50;;;23.20;95.70;;;;;;5108530;28;20640;-83
2022/07/21 09:07:23;;;;;;;3.77;3.43;;;23.00;96.50;;;;;;5105456;28;20674;-83
2022/07/21 09:09:57;;;;;;;5.00;3.30;;;23.00;95.80;;;;;;5108048;28;20670;-84
2022/07/21 09:12:24;;;;;;;4.70;4.03;;;23.20;96.80;;;;;;5107461;28;20628;-83
2022/07/21 09:14:51;;;;;;;3.13;2.93;;;23.40;96.30;;;;;;5108038;28;20714;-83
2022/07/21 09:17:19;;;;;;;3.90;3.60;;;23.10;96.30;;;;;;5108118;28;20685;-82
2022/07/21 09:19:49;;;;;;;3.87;3.47;;;23.00;96.10;;;;;;5107042;28;20647;-82
2022/07/21 09:22:19;;;;;;;4.07;3.67;;;22.90;97.40;;;;;;5107274;28;21181;-82
2022/07/21 09:24:50;;;;;;;5.23;3.93;;;23.10;96.20;;;;;;5107272;28;20623;-82
2022/07/21 09:27:18;;;;;;;3.50;3.17;;;23.50;95.80;;;;;;5108079;28;21182;-82
2022/07/21 09:29:47;;;;;;;4.17;3.77;;;23.70;95.70;;;;;;5108157;28;20659;-83
2022/07/21 09:32:23;;;;;;;3.30;3.10;;;23.70;95.20;;;;;;5106509;28;20707;-83
2022/07/21 09:34:53;;;;;;;3.57;3.23;;;23.50;95.10;;;;;;5088895;28;20624;-83
2022/07/21 09:37:21;;;;;;;4.40;4.00;;;23.40;94.50;;;;;;5087630;28;20616;-82
2022/07/21 09:39:50;;;;;;;3.90;3.50;;;23.30;94.70;;;;;;5087591;28;20659;-82
2022/07/21 09:42:20;;;;;;;4.27;3.87;;;23.20;94.70;;;;;;5104639;28;20775;-83
2022/07/21 09:44:49;;;;;;;5.30;4.33;;;23.40;94.90;;;;;;5106849;28;20618;-83
2022/07/21 09:47:18;;;;;;;3.77;3.47;;;23.50;94.90;;;;;;5107997;28;20673;-82
2022/07/21 09:49:46;;;;;;;3.83;3.50;;;23.90;94.30;;;;;;5106429;28;20683;-83
2022/07/21 09:52:25;;;;;;;3.17;2.90;;;24.20;93.30;;;;;;5110169;28;20703;-82
2022/07/21 09:54:54;;;;;;;3.43;3.13;;;24.20;92.90;;;;;;5110899;28;20622;-82
2022/07/21 09:57:22;;;;;;;3.57;3.27;;;24.40;93.60;;;;;;5111083;28;20654;-83
2022/07/21 09:59:50;;;;;;;3.37;3.07;;;24.80;92.50;;;;;;5111050;28;20723;-82
2022/07/21 10:02:20;;;;;;;3.30;3.00;;;25.10;93.00;;;;;;5110771;28;20608;-81
2022/07/21 10:04:52;;;;;;;3.90;3.30;;;25.30;92.70;;;;;;5110716;28;20651;-82
2022/07/21 10:07:19;;;;;;;3.07;2.80;;;25.40;92.50;;;;;;5111470;28;20618;-82
2022/07/21 10:09:48;;;;;;;3.10;2.83;;;25.10;90.80;;;;;;5109908;28;20713;-82
2022/07/21 10:12:16;;;;;;;2.90;2.70;;;24.70;89.60;;;;;;5110422;28;20611;-83
2022/07/21 10:14:43;;;;;;;3.53;3.23;;;24.70;91.10;;;;;;5110707;27;20651;-83
2022/07/21 10:17:09;;;;;;;3.60;3.27;;;24.80;90.20;;;;;;5110823;28;20706;-82
2022/07/21 10:19:46;;;;;;;2.47;2.27;;;25.10;88.90;;;;;;5110613;28;20622;-82
2022/07/21 10:22:22;;;;;;;3.30;2.93;;;25.40;86.50;;;;;;5109839;28;20622;-82
2022/07/21 10:24:50;;;;;;;3.00;2.73;;;25.70;85.50;;;;;;5110636;28;20629;-83
2022/07/21 10:27:17;;;;;;;2.90;2.60;;;25.90;83.50;;;;;;5110641;28;20705;-82
2022/07/21 10:30:00;;;;;;;3.27;2.97;;;26.20;82.30;;;;;;5109838;28;20647;-83
2022/07/21 10:32:29;;;;;;;2.40;2.20;;;26.20;79.40;;;;;;5109051;28;20616;-83
2022/07/21 10:34:58;;;;;;;2.40;2.20;;;26.30;82.30;;;;;;5110118;28;20686;-83
2022/07/21 10:37:50;;;;;;;2.40;2.20;;;26.40;77.50;;;;;;5110505;28;20651;-82
2022/07/21 10:40:40;;;;;;;2.33;2.10;;;26.50;76.60;;;;;;5110339;28;20623;-82
2022/07/21 10:43:42;;;;;;;2.83;2.40;;;26.60;77.70;;;;;;5108991;28;20657;-82
2022/07/21 10:46:38;;;;;;;2.33;2.13;;;26.70;78.70;;;;;;5106354;28;20631;-82
2022/07/21 10:49:07;;;;;;;2.80;2.60;;;26.50;74.70;;;;;;5110090;28;20722;-82
2022/07/21 10:51:36;;;;;;;3.20;2.90;;;27.00;76.80;;;;;;5109071;28;20750;-82
2022/07/21 10:54:23;;;;;;;2.60;2.40;;;27.10;73.90;;;;;;5109521;28;20655;-82
2022/07/21 10:57:28;;;;;;;2.23;2.03;;;27.10;72.90;;;;;;5109620;28;20972;-81
2022/07/21 11:00:24;;;;;;;2.53;2.33;;;27.00;77.20;;;;;;5109296;28;21201;-81
2022/07/21 11:02:53;;;;;;;2.77;2.47;;;26.80;75.30;;;;;;5061054;28;20636;-82
2022/07/21 11:05:21;;;;;;;3.30;3.00;;;26.80;76.30;;;;;;5110045;28;20672;-81
2022/07/21 11:08:16;;;;;;;3.50;3.20;;;26.40;72.00;;;;;;5110190;28;20684;-82
2022/07/21 11:10:46;;;;;;;2.77;2.57;;;26.90;73.30;;;;;;5110110;28;20659;-82
2022/07/21 11:13:15;;;;;;;3.30;3.00;;;27.40;75.30;;;;;;5109568;28;21338;-81
2022/07/21 11:15:56;;;;;;;3.43;2.80;;;27.10;74.70;;;;;;5109558;28;20714;-81
2022/07/21 11:18:25;;;;;;;2.97;2.70;;;26.70;75.30;;;;;;5108927;28;20616;-84
2022/07/21 11:21:09;;;;;;;2.77;2.57;;;26.50;72.50;;;;;;5109821;28;20715;-83
2022/07/21 11:23:38;;;;;;;2.90;2.20;;;26.30;72.50;;;;;;5107416;28;20672;-82
2022/07/21 11:26:05;;;;;;;2.63;2.43;;;26.50;69.30;;;;;;5109258;28;21021;-81
2022/07/21 11:28:33;;;;;;;2.60;2.40;;;26.50;72.00;;;;;;5109374;28;20647;-82
2022/07/21 11:31:08;;;;;;;2.70;2.50;;;26.40;71.10;;;;;;5108684;28;20663;-81
2022/07/21 11:33:36;;;;;;;2.57;2.37;;;26.10;73.50;;;;;;5108821;28;20711;-82
2022/07/21 11:36:04;;;;;;;2.53;2.33;;;26.10;75.60;;;;;;5109348;28;20627;-82
2022/07/21 11:38:31;;;;;;;2.80;2.60;;;26.80;70.90;;;;;;5109513;28;20600;-81
2022/07/21 11:41:13;;;;;;;2.43;2.23;;;27.60;67.40;;;;;;5109340;28;20631;-81
2022/07/21 11:43:43;;;;;;;2.47;2.27;;;27.70;65.90;;;;;;5108466;28;20711;-81
2022/07/21 11:46:10;;;;;;;2.87;2.67;;;27.10;62.70;;;;;;5109053;28;20669;-81
2022/07/21 11:48:37;;;;;;;2.67;2.47;;;27.40;70.30;;;;;;5108761;28;21035;-82
2022/07/21 11:51:05;;;;;;;3.03;2.73;;;28.40;71.70;;;;;;5108109;28;20694;-81
2022/07/21 11:53:32;;;;;;;2.63;1.93;;;29.20;63.30;;;;;;5108191;28;20676;-81
2022/07/21 11:55:59;;;;;;;3.67;3.00;;;29.70;60.20;;;;;;5108595;28;20712;-82
2022/07/21 11:58:26;;;;;;;2.57;2.37;;;30.10;59.80;;;;;;5108867;28;20712;-81
2022/07/21 12:01:07;;;;;;;2.20;2.10;;;29.90;59.10;;;;;;5109067;28;20673;-82
2022/07/21 12:03:34;;;;;;;2.93;2.63;;;29.40;58.80;;;;;;5108317;28;20611;-80
2022/07/21 12:06:02;;;;;;;4.50;2.87;;;28.80;63.40;;;;;;5108381;28;21195;-81
2022/07/21 12:08:30;;;;;;;2.27;2.17;;;28.50;64.00;;;;;;5108117;28;20934;-81
2022/07/21 12:11:07;;;;;;;2.77;2.57;;;27.90;61.00;;;;;;5108956;28;21094;-81
2022/07/21 12:13:52;;;;;;;2.97;2.67;;;27.50;61.60;;;;;;5107790;28;20722;-81
2022/07/21 12:16:20;;;;;;;2.53;2.33;;;28.10;61.00;;;;;;5109063;28;20615;-81
2022/07/21 12:18:47;;;;;;;2.93;2.63;;;29.40;59.70;;;;;;5108423;28;20718;-82
2022/07/21 12:21:14;;;;;;;2.63;2.40;;;30.90;60.40;;;;;;5108770;28;20703;-81
2022/07/21 12:23:41;;;;;;;3.13;2.93;;;32.10;53.50;;;;;;5108133;28;21013;-82
2022/07/21 12:26:21;;;;;;;2.90;2.70;;;33.50;55.50;;;;;;5108076;27;20664;-83
2022/07/21 12:28:52;;;;;;;3.03;2.73;;;34.20;52.20;;;;;;5108599;28;21051;-82
2022/07/21 12:31:23;;;;;;;2.57;2.37;;;35.00;48.50;;;;;;5108034;28;20665;-81
2022/07/21 12:33:50;;;;;;;3.20;3.00;;;34.40;49.30;;;;;;5107999;28;21159;-83
2022/07/21 12:36:20;;;;;;;3.03;2.83;;;33.30;50.60;;;;;;5108126;28;21258;-82
2022/07/21 12:38:48;;;;;;;2.50;2.30;;;31.50;50.10;;;;;;5108542;28;20669;-82
2022/07/21 12:41:17;;;;;;;3.40;3.20;;;30.80;54.00;;;;;;5108300;28;20770;-82
2022/07/21 12:43:45;;;;;;;2.97;2.77;;;30.30;55.00;;;;;;5107098;28;20714;-82
2022/07/21 12:46:15;;;;;;;2.93;2.73;;;29.70;54.80;;;;;;5108367;28;20630;-81
2022/07/21 12:48:44;;;;;;;3.00;2.80;;;29.30;57.80;;;;;;5107785;28;20641;-81
2022/07/21 12:51:14;;;;;;;2.57;2.40;;;28.90;54.50;;;;;;5107073;28;20667;-82
2022/07/21 12:53:44;;;;;;;2.60;2.40;;;30.00;57.40;;;;;;5107310;28;20624;-82
2022/07/21 12:56:12;;;;;;;3.53;3.23;;;30.40;55.40;;;;;;5107863;28;20730;-82